Time;durP1;ratioP1;P1;durP2;ratioP2;P2;SDS_P1;SDS_P2;PMS_P1;PMS_P2;Temp;Humidity;BMP_temperature;BMP_pressure;BME280_temperature;BME280_humidity;BME280_pressure;Samples;Min_cycle;Max_cycle;Signal;HPM_P1;HPM_P2
2023/01/28 00:01:05;;;;;;;;;;;;;;;4.32;77.68;100787.13;5049464;28;19936;-68
2023/01/28 00:03:30;;;;;;;;;;;;;;;4.31;77.87;100790.66;5057782;28;19979;-68
2023/01/28 00:06:00;;;;;;;;;;;;;;;4.31;77.58;100784.50;5067830;28;19937;-68
2023/01/28 00:08:26;;;;;;;;;;;;;;;4.25;77.89;100777.44;5062548;28;19939;-69
2023/01/28 00:10:51;;;;;;;;;;;;;;;4.19;78.10;100781.78;5067730;28;20328;-69
2023/01/28 00:13:16;;;;;;;;;;;;;;;4.13;78.40;100774.75;5066640;28;19999;-68
2023/01/28 00:15:42;;;;;;;;;;;;;;;4.10;78.54;100780.03;5049842;28;19960;-68
2023/01/28 00:18:08;;;;;;;;;;;;;;;4.12;78.68;100787.91;5048457;28;19952;-68
2023/01/28 00:20:34;;;;;;;;;;;;;;;4.10;78.81;100789.66;5051435;28;20043;-68
2023/01/28 00:22:59;;;;;;;;;;;;;;;4.07;79.16;100785.25;5049356;28;20015;-68
2023/01/28 00:25:24;;;;;;;;;;;;;;;4.11;79.36;100789.66;5037156;28;20043;-68
2023/01/28 00:27:50;;;;;;;;;;;;;;;4.12;79.46;100788.78;5032667;28;20058;-68
2023/01/28 00:30:15;;;;;;;;;;;;;;;4.15;79.63;100786.19;5049027;28;19940;-68
2023/01/28 00:32:41;;;;;;;;;;;;;;;4.13;80.01;100785.28;5052885;28;19936;-68
2023/01/28 00:35:06;;;;;;;;;;;;;;;4.11;79.49;100781.75;5052867;28;19945;-68
2023/01/28 00:37:32;;;;;;;;;;;;;;;4.07;79.43;100780.88;5035983;28;19940;-68
2023/01/28 00:39:57;;;;;;;;;;;;;;;4.00;79.57;100781.69;5050981;28;20036;-68
2023/01/28 00:42:22;;;;;;;;;;;;;;;3.96;79.37;100779.94;5030110;28;19936;-68
2023/01/28 00:44:47;;;;;;;;;;;;;;;3.88;80.06;100783.38;5058105;28;19937;-68
2023/01/28 00:47:13;;;;;;;;;;;;;;;3.78;80.07;100786.81;5067892;28;19934;-67
2023/01/28 00:49:38;;;;;;;;;;;;;;;3.70;80.94;100778.88;5058824;28;19943;-68
2023/01/28 00:52:03;;;;;;;;;;;;;;;3.65;81.50;100782.34;5030499;28;19994;-68
2023/01/28 00:54:28;;;;;;;;;;;;;;;3.70;81.95;100794.66;5049225;28;19943;-68
2023/01/28 00:56:54;;;;;;;;;;;;;;;3.71;81.65;100785.91;5050167;28;19950;-66
2023/01/28 00:59:19;;;;;;;;;;;;;;;3.73;81.73;100793.78;5054529;28;20087;-68
2023/01/28 01:01:44;;;;;;;;;;;;;;;3.72;82.15;100792.03;5035180;28;19944;-68
2023/01/28 01:04:10;;;;;;;;;;;;;;;3.76;82.07;100793.81;5063722;28;20420;-68
2023/01/28 01:06:36;;;;;;;;;;;;;;;3.79;81.89;100801.72;5070111;28;19934;-66
2023/01/28 01:09:03;;;;;;;;;;;;;;;3.83;81.56;100800.88;5053074;28;20038;-68
2023/01/28 01:11:28;;;;;;;;;;;;;;;3.87;81.54;100802.69;5051705;28;19943;-68
2023/01/28 01:13:55;;;;;;;;;;;;;;;3.91;81.67;100804.44;5052279;28;19930;-68
2023/01/28 01:16:21;;;;;;;;;;;;;;;3.95;81.20;100801.84;5055368;28;20440;-69
2023/01/28 01:18:47;;;;;;;;;;;;;;;3.99;81.17;100792.22;5034257;28;19973;-68
2023/01/28 01:21:14;;;;;;;;;;;;;;;4.08;81.26;100797.53;5033566;28;19940;-68
2023/01/28 01:23:39;;;;;;;;;;;;;;;4.10;80.65;100803.72;5072242;28;19935;-69
2023/01/28 01:26:05;;;;;;;;;;;;;;;4.14;80.69;100805.47;5071340;28;20057;-68
2023/01/28 01:28:31;;;;;;;;;;;;;;;4.15;80.78;100815.16;5067588;28;19944;-68
2023/01/28 01:31:00;;;;;;;;;;;;;;;4.15;80.15;100817.78;5070766;28;19961;-68
2023/01/28 01:33:26;;;;;;;;;;;;;;;4.21;80.29;100820.44;5068641;28;19943;-68
2023/01/28 01:35:53;;;;;;;;;;;;;;;4.22;79.87;100822.19;5070083;28;19937;-69
2023/01/28 01:38:18;;;;;;;;;;;;;;;4.21;79.89;100817.81;5067738;28;20057;-68
2023/01/28 01:40:44;;;;;;;;;;;;;;;4.26;79.56;100818.72;5071333;28;20063;-69
2023/01/28 01:43:19;;;;;;;;;;;;;;;4.26;79.71;100813.44;5071907;28;20259;-69
2023/01/28 01:45:47;;;;;;;;;;;;;;;4.22;79.63;100816.91;5071406;28;19970;-68
2023/01/28 01:48:18;;;;;;;;;;;;;;;4.25;79.45;100811.66;5069219;28;20032;-69
2023/01/28 01:50:59;;;;;;;;;;;;;;;4.30;79.42;100804.66;5071396;28;19928;-68
2023/01/28 01:53:26;;;;;;;;;;;;;;;4.33;79.25;100804.72;5068565;28;20287;-68
2023/01/28 01:55:53;;;;;;;;;;;;;;;4.33;79.11;100799.44;5070823;28;19940;-69
2023/01/28 01:58:20;;;;;;;;;;;;;;;4.35;79.31;100795.03;5069762;28;19958;-69
2023/01/28 02:00:45;;;;;;;;;;;;;;;4.36;79.28;100799.47;5063976;28;19943;-69
2023/01/28 02:03:11;;;;;;;;;;;;;;;4.37;79.43;100806.47;5054725;28;20456;-69
2023/01/28 02:05:37;;;;;;;;;;;;;;;4.36;79.34;100802.09;5070995;28;19946;-68
2023/01/28 02:08:20;;;;;;;;;;;;;;;4.34;79.62;100792.41;5056938;28;19999;-69
2023/01/28 02:10:48;;;;;;;;;;;;;;;4.35;79.77;100800.31;5050326;28;19989;-68
2023/01/28 02:13:14;;;;;;;;;;;;;;;4.34;80.03;100801.19;5050411;28;19957;-68
2023/01/28 02:15:41;;;;;;;;;;;;;;;4.38;79.59;100802.97;5033551;28;19986;-68
2023/01/28 02:18:06;;;;;;;;;;;;;;;4.39;79.77;100798.56;5070614;28;20720;-68
2023/01/28 02:20:50;;;;;;;;;;;;;;;4.37;79.68;100795.94;5073750;28;19942;-69
2023/01/28 02:23:29;;;;;;;;;;;;;;;4.39;80.05;100794.19;5071103;28;19951;-69
2023/01/28 02:25:57;;;;;;;;;;;;;;;4.38;79.88;100807.38;5061457;28;19940;-68
2023/01/28 02:28:46;;;;;;;;;;;;;;;4.38;79.86;100797.72;5051184;28;19940;-69
2023/01/28 02:31:18;;;;;;;;;;;;;;;4.41;80.04;100803.00;5044454;28;20325;-68
2023/01/28 02:34:01;;;;;;;;;;;;;;;4.40;79.86;100803.84;5053275;28;19989;-69
2023/01/28 02:36:29;;;;;;;;;;;;;;;4.43;79.87;100801.22;5069972;28;19939;-69
2023/01/28 02:38:57;;;;;;;;;;;;;;;4.43;79.86;100805.63;5070630;28;20027;-69
2023/01/28 02:41:28;;;;;;;;;;;;;;;4.47;79.36;100797.75;5070363;28;20020;-69
2023/01/28 02:43:53;;;;;;;;;;;;;;;4.54;79.34;100807.44;5068233;28;19938;-68
2023/01/28 02:49:38;;;;;;;;;;;;;;;4.50;79.65;100816.19;5062436;28;19946;-69
2023/01/28 02:52:16;;;;;;;;;;;;;;;4.45;80.03;100812.66;5050619;28;19945;-69
2023/01/28 02:54:44;;;;;;;;;;;;;;;4.42;80.33;100815.28;5034896;28;19942;-69
2023/01/28 02:57:12;;;;;;;;;;;;;;;4.48;80.02;100814.44;5051605;28;20048;-70
2023/01/28 02:59:44;;;;;;;;;;;;;;;4.44;79.86;100818.81;5067506;28;19956;-69
2023/01/28 03:02:24;;;;;;;;;;;;;;;4.45;79.67;100810.00;5053520;28;19945;-69
2023/01/28 03:04:55;;;;;;;;;;;;;;;4.42;79.87;100819.66;5065386;28;19936;-68
2023/01/28 03:07:22;;;;;;;;;;;;;;;4.43;79.89;100821.44;5068671;28;20044;-67
2023/01/28 03:09:50;;;;;;;;;;;;;;;4.43;79.84;100818.81;5065174;28;19939;-70
2023/01/28 03:37:23;;;;;;;;;;;;;;;4.49;81.47;100819.72;5049595;28;20408;-69
2023/01/28 03:39:48;;;;;;;;;;;;;;;4.51;81.63;100823.22;5038879;28;19956;-69
2023/01/28 03:42:14;;;;;;;;;;;;;;;4.52;81.29;100821.47;5045010;28;19940;-69
2023/01/28 03:44:51;;;;;;;;;;;;;;;4.53;80.94;100824.09;5031271;28;19946;-68
2023/01/28 03:47:21;;;;;;;;;;;;;;;4.55;80.89;100827.63;5028946;28;20030;-69
2023/01/28 03:49:48;;;;;;;;;;;;;;;4.56;81.48;100826.78;5038936;28;19960;-68
2023/01/28 03:52:14;;;;;;;;;;;;;;;4.59;81.39;100839.06;5048591;28;19996;-69
2023/01/28 03:54:39;;;;;;;;;;;;;;;4.55;81.77;100832.91;5028364;28;20412;-69
2023/01/28 03:57:05;;;;;;;;;;;;;;;4.54;81.91;100836.41;5046709;28;20008;-71
2023/01/28 03:59:31;;;;;;;;;;;;;;;4.50;82.17;100839.91;5052007;28;19960;-70
2023/01/28 04:01:56;;;;;;;;;;;;;;;4.54;81.85;100841.69;5036160;28;20629;-69
2023/01/28 04:04:23;;;;;;;;;;;;;;;4.54;82.02;100841.69;5034358;28;19942;-69
2023/01/28 04:06:49;;;;;;;;;;;;;;;4.59;81.90;100839.94;5049214;28;19933;-70
2023/01/28 04:09:14;;;;;;;;;;;;;;;4.59;82.41;100842.59;5049763;28;19933;-69
2023/01/28 04:11:39;;;;;;;;;;;;;;;4.59;82.21;100839.94;5044828;28;19944;-69
2023/01/28 04:14:05;;;;;;;;;;;;;;;4.61;82.24;100838.19;5049512;28;19940;-68
2023/01/28 04:16:30;;;;;;;;;;;;;;;4.59;82.33;100837.31;5047608;28;19993;-69
2023/01/28 04:18:56;;;;;;;;;;;;;;;4.61;82.53;100843.44;5048146;28;20178;-69
2023/01/28 04:21:22;;;;;;;;;;;;;;;4.63;81.81;100846.13;5048406;28;19938;-69
2023/01/28 04:23:47;;;;;;;;;;;;;;;4.60;82.36;100836.44;5049950;28;20404;-70
2023/01/28 04:26:12;;;;;;;;;;;;;;;4.62;82.37;100845.22;5047800;28;19931;-71
2023/01/28 04:28:37;;;;;;;;;;;;;;;4.62;82.69;100846.97;5051682;28;19931;-70
2023/01/28 04:31:03;;;;;;;;;;;;;;;4.59;82.64;100850.50;5050016;28;19939;-68
2023/01/28 04:33:28;;;;;;;;;;;;;;;4.65;82.54;100855.78;5051190;28;19976;-69
2023/01/28 04:35:53;;;;;;;;;;;;;;;4.67;82.77;100856.66;5071181;28;19944;-68
2023/01/28 04:38:19;;;;;;;;;;;;;;;4.66;82.79;100857.53;5036883;28;19962;-69
2023/01/28 04:40:44;;;;;;;;;;;;;;;4.66;83.25;100852.25;5052559;28;20005;-69
2023/01/28 04:43:09;;;;;;;;;;;;;;;4.66;82.85;100854.88;5034703;28;20007;-70
2023/01/28 04:45:34;;;;;;;;;;;;;;;4.69;83.27;100856.66;5053204;28;20319;-69
2023/01/28 04:48:00;;;;;;;;;;;;;;;4.68;83.67;100865.47;5070111;28;19995;-69
2023/01/28 04:50:25;;;;;;;;;;;;;;;4.70;83.82;100848.78;5070926;28;19978;-69
2023/01/28 04:52:50;;;;;;;;;;;;;;;4.67;83.81;100854.03;5072611;28;20387;-70
2023/01/28 04:55:15;;;;;;;;;;;;;;;4.62;83.80;100861.03;5068781;28;20194;-69
2023/01/28 04:57:41;;;;;;;;;;;;;;;4.59;84.24;100860.13;5072490;28;19934;-71
2023/01/28 05:00:06;;;;;;;;;;;;;;;4.60;84.29;100857.50;5071717;28;20029;-70
2023/01/28 05:02:32;;;;;;;;;;;;;;;4.65;84.51;100865.44;5055060;28;19933;-70
2023/01/28 05:04:57;;;;;;;;;;;;;;;4.63;84.29;100859.28;5072884;28;20011;-70
2023/01/28 05:07:22;;;;;;;;;;;;;;;4.61;84.51;100861.03;5069567;28;19940;-69
2023/01/28 05:09:47;;;;;;;;;;;;;;;4.59;85.19;100855.75;5071963;28;19963;-69
2023/01/28 05:12:13;;;;;;;;;;;;;;;4.60;85.83;100857.50;5071084;28;20122;-69
2023/01/28 05:14:38;;;;;;;;;;;;;;;4.58;85.97;100864.50;5053740;28;19943;-69
2023/01/28 05:17:03;;;;;;;;;;;;;;;4.62;86.22;100865.41;5051051;28;19963;-68
2023/01/28 05:19:29;;;;;;;;;;;;;;;4.58;87.00;100867.16;5033188;28;20042;-68
2023/01/28 05:21:54;;;;;;;;;;;;;;;4.60;87.07;100873.31;5055087;28;19943;-69
2023/01/28 05:24:20;;;;;;;;;;;;;;;4.63;87.22;100867.19;5089507;28;20024;-69
2023/01/28 05:26:45;;;;;;;;;;;;;;;4.62;87.12;100866.31;5091172;28;19940;-69
2023/01/28 05:29:10;;;;;;;;;;;;;;;4.62;87.31;100878.59;5091590;28;19933;-69
2023/01/28 05:31:36;;;;;;;;;;;;;;;4.61;87.70;100875.06;5059187;28;20404;-70
2023/01/28 05:34:01;;;;;;;;;;;;;;;4.63;88.15;100873.31;5054692;28;20005;-69
2023/01/28 05:36:26;;;;;;;;;;;;;;;4.62;88.32;100871.56;5071411;28;19946;-69
2023/01/28 05:38:51;;;;;;;;;;;;;;;4.52;89.02;100864.50;5070729;28;20023;-69
2023/01/28 05:41:17;;;;;;;;;;;;;;;4.59;88.99;100878.59;5060309;28;19991;-69
2023/01/28 05:43:42;;;;;;;;;;;;;;;4.57;88.96;100877.69;5066397;28;19990;-68
2023/01/28 05:46:07;;;;;;;;;;;;;;;4.43;89.33;100874.97;5070085;28;20470;-69
2023/01/28 05:48:32;;;;;;;;;;;;;;;4.49;90.29;100875.03;5070616;28;19937;-69
2023/01/28 05:50:58;;;;;;;;;;;;;;;4.50;89.81;100876.78;5049731;28;19953;-69
2023/01/28 05:53:23;;;;;;;;;;;;;;;4.47;90.72;100879.41;5051383;28;19944;-69
2023/01/28 05:55:50;;;;;;;;;;;;;;;4.50;91.04;100891.72;5049970;28;19941;-68
2023/01/28 05:58:15;;;;;;;;;;;;;;;4.43;92.10;100885.50;5045561;28;20061;-70
2023/01/28 06:00:41;;;;;;;;;;;;;;;4.40;92.43;100890.75;5034344;28;19944;-69
2023/01/28 06:03:06;;;;;;;;;;;;;;;4.39;93.59;100896.91;5069489;28;19946;-69
2023/01/28 06:05:31;;;;;;;;;;;;;;;4.34;93.94;100906.53;5050909;28;20027;-68
2023/01/28 06:07:56;;;;;;;;;;;;;;;4.31;95.09;100906.50;5053211;28;19945;-68
2023/01/28 06:10:22;;;;;;;;;;;;;;;4.29;95.24;100908.25;5051185;28;20301;-70
2023/01/28 06:12:47;;;;;;;;;;;;;;;4.32;95.95;100916.16;5050975;28;19953;-70
2023/01/28 06:15:12;;;;;;;;;;;;;;;4.28;96.46;100911.78;5051205;28;19937;-69
2023/01/28 06:17:38;;;;;;;;;;;;;;;4.25;97.18;100914.34;5053156;28;19963;-68
2023/01/28 06:20:03;;;;;;;;;;;;;;;4.27;97.89;100912.63;5063101;28;19946;-71
2023/01/28 06:22:28;;;;;;;;;;;;;;;4.28;98.29;100911.78;5067103;28;19941;-69
2023/01/28 06:24:54;;;;;;;;;;;;;;;4.22;98.79;100916.09;5070642;28;19987;-69
2023/01/28 06:27:19;;;;;;;;;;;;;;;4.19;99.56;100930.13;5071024;28;19957;-70
2023/01/28 06:29:44;;;;;;;;;;;;;;;4.22;99.48;100930.13;5070898;28;19937;-70
2023/01/28 06:32:09;;;;;;;;;;;;;;;4.17;99.31;100934.47;5057493;28;19938;-67
2023/01/28 06:34:35;;;;;;;;;;;;;;;4.14;99.85;100929.19;5058448;28;19939;-70
2023/01/28 06:37:00;;;;;;;;;;;;;;;4.14;99.97;100926.56;5070345;28;20409;-70
2023/01/28 06:39:27;;;;;;;;;;;;;;;4.08;100.00;100935.28;5070965;28;20003;-70
2023/01/28 06:41:52;;;;;;;;;;;;;;;4.11;100.00;100944.97;5053142;28;19940;-70
2023/01/28 06:44:17;;;;;;;;;;;;;;;4.06;100.00;100949.31;5050555;28;19937;-70
2023/01/28 06:46:43;;;;;;;;;;;;;;;4.03;100.00;100947.56;5050314;28;20616;-69
2023/01/28 06:49:08;;;;;;;;;;;;;;;4.05;100.00;100950.19;5067607;28;19944;-70
2023/01/28 06:51:33;;;;;;;;;;;;;;;4.07;100.00;100946.69;5050288;28;19950;-70
2023/01/28 06:53:58;;;;;;;;;;;;;;;4.10;100.00;100948.50;5052330;28;19944;-69
2023/01/28 06:56:24;;;;;;;;;;;;;;;4.07;100.00;100951.06;5053980;28;19943;-68
2023/01/28 06:58:49;;;;;;;;;;;;;;;4.11;100.00;100952.88;5069014;28;20394;-68
2023/01/28 07:01:14;;;;;;;;;;;;;;;4.10;100.00;100951.13;5044066;28;19945;-68
2023/01/28 07:03:40;;;;;;;;;;;;;;;4.10;100.00;100953.75;5039462;28;19944;-67
2023/01/28 07:06:05;;;;;;;;;;;;;;;4.04;100.00;100951.06;5069307;28;19937;-67
2023/01/28 07:08:31;;;;;;;;;;;;;;;4.04;100.00;100957.22;5052809;28;19985;-68
2023/01/28 07:10:57;;;;;;;;;;;;;;;4.01;100.00;100953.66;5062919;28;19949;-68
2023/01/28 07:13:22;;;;;;;;;;;;;;;3.97;100.00;100954.50;5070065;28;19946;-67
2023/01/28 07:15:48;;;;;;;;;;;;;;;3.90;100.00;100958.81;5067033;28;19937;-67
2023/01/28 07:18:13;;;;;;;;;;;;;;;3.96;100.00;100965.91;5059206;28;19985;-68
2023/01/28 07:20:39;;;;;;;;;;;;;;;3.98;100.00;100958.91;5069027;28;19938;-68
2023/01/28 07:23:04;;;;;;;;;;;;;;;3.93;100.00;100963.25;5065916;28;19937;-67
2023/01/28 07:25:30;;;;;;;;;;;;;;;3.91;100.00;100970.25;5046838;28;20336;-67
2023/01/28 07:27:55;;;;;;;;;;;;;;;3.95;100.00;100974.69;5046512;28;19936;-67
2023/01/28 07:30:22;;;;;;;;;;;;;;;3.97;100.00;100968.53;5050728;28;19943;-68
2023/01/28 07:32:52;;;;;;;;;;;;;;;3.97;100.00;100972.91;5048852;28;20303;-68
2023/01/28 07:35:17;;;;;;;;;;;;;;;4.00;100.00;100979.09;5062860;28;20313;-68
2023/01/28 07:37:49;;;;;;;;;;;;;;;4.01;100.00;100980.88;5048950;28;19947;-67
2023/01/28 07:40:14;;;;;;;;;;;;;;;4.05;100.00;100981.78;5051027;28;19940;-68
2023/01/28 07:42:41;;;;;;;;;;;;;;;4.02;100.00;100980.00;5067760;28;20414;-68
2023/01/28 07:45:06;;;;;;;;;;;;;;;4.08;100.00;100976.53;5069631;28;20119;-68
2023/01/28 07:47:32;;;;;;;;;;;;;;;4.07;100.00;100984.44;5069452;28;19943;-67
2023/01/28 07:49:57;;;;;;;;;;;;;;;4.12;100.00;100978.31;5064743;28;19944;-67
2023/01/28 07:52:22;;;;;;;;;;;;;;;4.18;100.00;100983.66;5049215;28;19932;-67
2023/01/28 07:54:48;;;;;;;;;;;;;;;4.18;100.00;100983.66;5049519;28;19928;-67
2023/01/28 07:57:13;;;;;;;;;;;;;;;4.33;100.00;100991.69;5062862;28;19940;-67
2023/01/28 07:59:38;;;;;;;;;;;;;;;4.31;100.00;100989.88;5069636;28;19992;-67
2023/01/28 08:02:03;;;;;;;;;;;;;;;4.30;100.00;100985.50;5063291;28;19944;-67
2023/01/28 08:04:29;;;;;;;;;;;;;;;4.36;100.00;100991.69;5069564;28;19940;-67
2023/01/28 08:06:55;;;;;;;;;;;;;;;4.37;100.00;100990.81;5065913;28;20322;-67
2023/01/28 08:09:21;;;;;;;;;;;;;;;4.36;100.00;100988.19;5069465;28;19932;-67
2023/01/28 08:11:46;;;;;;;;;;;;;;;4.30;100.00;100990.78;5054541;28;20018;-67
2023/01/28 08:14:11;;;;;;;;;;;;;;;4.34;100.00;101003.06;5057697;28;19937;-67
2023/01/28 08:16:37;;;;;;;;;;;;;;;4.30;100.00;100998.69;5053557;28;20069;-68
2023/01/28 08:19:02;;;;;;;;;;;;;;;4.28;100.00;100998.66;5057664;28;19951;-67
2023/01/28 08:21:27;;;;;;;;;;;;;;;4.38;100.00;101002.25;5073011;28;20400;-68
2023/01/28 08:23:53;;;;;;;;;;;;;;;4.47;100.00;101008.47;5073500;28;19937;-68
2023/01/28 08:26:18;;;;;;;;;;;;;;;4.50;100.00;101007.63;5056829;28;19951;-67
2023/01/28 08:28:44;;;;;;;;;;;;;;;4.44;100.00;101002.28;5059273;28;20320;-67
2023/01/28 08:31:09;;;;;;;;;;;;;;;4.43;100.00;101016.34;5055811;28;20017;-67
2023/01/28 08:33:34;;;;;;;;;;;;;;;4.41;100.00;101012.81;5052854;28;19935;-67
2023/01/28 08:36:03;;;;;;;;;;;;;;;4.48;100.00;101009.34;5071714;28;19939;-68
2023/01/28 08:38:29;;;;;;;;;;;;;;;4.48;100.00;101010.22;5072872;28;19977;-67
2023/01/28 08:40:58;;;;;;;;;;;;;;;4.51;100.00;101010.25;5069209;28;19950;-67
2023/01/28 08:43:24;;;;;;;;;;;;;;;4.56;100.00;101019.09;5072586;28;19930;-67
2023/01/28 08:45:49;;;;;;;;;;;;;;;4.52;100.00;101011.13;5050079;28;19946;-67
2023/01/28 08:48:15;;;;;;;;;;;;;;;4.56;100.00;101019.09;5052700;28;19937;-67
2023/01/28 08:50:41;;;;;;;;;;;;;;;4.61;100.00;101017.34;5052714;28;19937;-66
2023/01/28 08:53:08;;;;;;;;;;;;;;;4.67;100.00;101014.75;5065385;28;19944;-67
2023/01/28 08:55:34;;;;;;;;;;;;;;;4.68;100.00;101016.50;5072468;28;20319;-68
2023/01/28 08:58:03;;;;;;;;;;;;;;;4.69;100.00;101026.19;5066863;28;19944;-67
2023/01/28 09:00:29;;;;;;;;;;;;;;;4.68;100.00;101019.16;5053396;28;19943;-67
2023/01/28 09:02:54;;;;;;;;;;;;;;;4.79;100.00;101022.75;5036289;28;19953;-68
2023/01/28 09:05:20;;;;;;;;;;;;;;;4.82;100.00;101025.41;5053505;28;19943;-68
2023/01/28 09:07:45;;;;;;;;;;;;;;;4.87;100.00;101033.34;5060910;28;19946;-67
2023/01/28 09:10:11;;;;;;;;;;;;;;;4.92;100.00;101028.97;5052449;28;19940;-67
2023/01/28 09:12:36;;;;;;;;;;;;;;;4.97;100.00;101037.81;5054314;28;19958;-67
2023/01/28 09:15:01;;;;;;;;;;;;;;;5.00;100.00;101036.06;5056390;28;20568;-67
2023/01/28 09:17:27;;;;;;;;;;;;;;;5.04;100.00;101034.34;5067088;28;19977;-67
2023/01/28 09:19:52;;;;;;;;;;;;;;;5.13;100.00;101039.66;5058333;28;20030;-67
2023/01/28 09:22:18;;;;;;;;;;;;;;;5.19;100.00;101035.28;5051954;28;19937;-67
2023/01/28 09:24:43;;;;;;;;;;;;;;;5.27;100.00;101044.13;5054089;28;20376;-66
2023/01/28 09:27:08;;;;;;;;;;;;;;;5.37;100.00;101048.56;5071608;28;19938;-67
2023/01/28 09:29:34;;;;;;;;;;;;;;;5.44;100.00;101043.34;5067011;28;20042;-68
2023/01/28 09:31:59;;;;;;;;;;;;;;;5.44;100.00;101041.56;5049048;28;19936;-67
2023/01/28 09:34:24;;;;;;;;;;;;;;;5.54;100.00;101042.47;5057314;28;19992;-67
2023/01/28 09:36:49;;;;;;;;;;;;;;;5.70;100.00;101049.59;5068687;28;19938;-67
2023/01/28 09:39:15;;;;;;;;;;;;;;;5.74;100.00;101056.63;5071017;28;20020;-67
2023/01/28 09:41:40;;;;;;;;;;;;;;;5.71;100.00;101056.63;5059653;28;20595;-67
2023/01/28 09:44:16;;;;;;;;;;;;;;;5.77;100.00;101051.34;5050885;28;19944;-68
2023/01/28 09:46:44;;;;;;;;;;;;;;;5.79;100.00;101058.41;5053261;28;19944;-67
2023/01/28 09:49:28;;;;;;;;;;;;;;;5.84;100.00;101061.09;5051866;28;20056;-68
2023/01/28 09:51:54;;;;;;;;;;;;;;;5.85;100.00;101060.25;5059051;28;19985;-67
2023/01/28 09:54:37;;;;;;;;;;;;;;;5.87;100.00;101069.91;5068901;28;19935;-67
2023/01/28 09:57:23;;;;;;;;;;;;;;;5.89;100.00;101062.88;5071187;28;20402;-67
2023/01/28 09:59:48;;;;;;;;;;;;;;;5.98;100.00;101056.75;5058724;28;20634;-67
2023/01/28 10:02:28;;;;;;;;;;;;;;;5.99;99.40;101064.69;5051014;28;20029;-67
2023/01/28 10:05:15;;;;;;;;;;;;;;;6.10;99.02;101062.03;5061075;28;19992;-67
2023/01/28 10:07:50;;;;;;;;;;;;;;;6.09;98.84;101070.84;5059128;28;19965;-66
2023/01/28 10:10:18;;;;;;;;;;;;;;;6.15;98.81;101062.94;5068557;28;20439;-67
2023/01/28 10:13:02;;;;;;;;;;;;;;;6.32;97.70;101058.56;5074632;28;19963;-66
2023/01/28 10:15:46;;;;;;;;;;;;;;;6.40;97.38;101056.81;5068644;28;19942;-68
2023/01/28 10:18:12;;;;;;;;;;;;;;;6.56;96.81;101053.28;5065143;28;19958;-67
2023/01/28 10:20:48;;;;;;;;;;;;;;;6.59;96.15;101046.25;5070616;28;19945;-68
2023/01/28 10:23:24;;;;;;;;;;;;;;;6.62;95.14;101042.72;5062628;28;19938;-67
2023/01/28 10:25:49;;;;;;;;;;;;;;;6.68;93.93;101040.06;5049977;28;19984;-67
2023/01/28 10:28:26;;;;;;;;;;;;;;;6.61;92.68;101036.56;5075589;28;19939;-67
2023/01/28 10:30:52;;;;;;;;;;;;;;;6.47;91.78;101045.38;5067562;28;20324;-68
2023/01/28 10:33:23;;;;;;;;;;;;;;;6.54;92.80;101036.53;5070394;28;19938;-68
2023/01/28 10:35:48;;;;;;;;;;;;;;;6.67;91.82;101039.19;5052371;28;20052;-67
2023/01/28 10:38:16;;;;;;;;;;;;;;;6.70;92.18;101036.53;5058643;28;19954;-66
2023/01/28 10:40:41;;;;;;;;;;;;;;;6.72;91.79;101039.19;5050883;28;19930;-67
2023/01/28 10:43:10;;;;;;;;;;;;;;;6.68;91.43;101032.13;5054434;28;20048;-66
2023/01/28 10:45:39;;;;;;;;;;;;;;;6.60;91.45;101040.09;5070535;28;20406;-66
2023/01/28 10:48:24;;;;;;;;;;;;;;;6.58;91.94;101035.66;5063716;28;19971;-67
2023/01/28 10:50:53;;;;;;;;;;;;;;;6.66;92.14;101041.81;5070466;28;19987;-66
2023/01/28 10:53:19;;;;;;;;;;;;;;;6.67;91.61;101056.81;5065507;28;20323;-66
2023/01/28 10:55:54;;;;;;;;;;;;;;;6.68;90.79;101043.59;5067615;28;19940;-66
2023/01/28 10:58:22;;;;;;;;;;;;;;;6.67;90.67;101041.81;5067532;28;19967;-66
2023/01/28 11:00:55;;;;;;;;;;;;;;;6.66;90.80;101047.13;5064850;28;19942;-66
2023/01/28 11:03:21;;;;;;;;;;;;;;;6.58;90.39;101052.41;5067267;28;19938;-66
2023/01/28 11:05:51;;;;;;;;;;;;;;;6.59;90.86;101045.34;5062238;28;20400;-66
2023/01/28 11:08:17;;;;;;;;;;;;;;;6.60;91.21;101049.78;5070872;28;19940;-67
2023/01/28 11:10:42;;;;;;;;;;;;;;;6.64;90.47;101048.88;5066082;28;20505;-67
2023/01/28 11:13:21;;;;;;;;;;;;;;;6.70;90.60;101043.59;5069313;28;19948;-67
2023/01/28 11:15:51;;;;;;;;;;;;;;;6.58;90.13;101046.25;5068075;28;19928;-67
2023/01/28 11:18:19;;;;;;;;;;;;;;;6.63;90.93;101042.72;5063671;28;19997;-66
2023/01/28 11:20:49;;;;;;;;;;;;;;;6.61;90.58;101047.13;5069774;28;20064;-66
2023/01/28 11:23:20;;;;;;;;;;;;;;;6.63;90.73;101047.13;5062799;28;19938;-66
2023/01/28 11:25:46;;;;;;;;;;;;;;;6.62;90.39;101038.31;5057083;28;20349;-66
2023/01/28 11:28:17;;;;;;;;;;;;;;;6.61;90.02;101051.53;5048339;28;20025;-66
2023/01/28 11:30:42;;;;;;;;;;;;;;;6.54;89.77;101049.75;5069727;28;19993;-67
2023/01/28 11:33:23;;;;;;;;;;;;;;;6.47;90.27;101059.44;5068711;28;19932;-67
2023/01/28 11:35:54;;;;;;;;;;;;;;;6.60;90.66;101057.69;5068578;28;19947;-66
2023/01/28 11:38:21;;;;;;;;;;;;;;;6.58;89.55;101056.81;5069521;28;20051;-67
2023/01/28 11:40:53;;;;;;;;;;;;;;;6.23;90.51;101016.28;5039425;28;19986;-66
2023/01/28 11:43:20;;;;;;;;;;;;;;;6.48;90.35;101061.22;5051327;28;19934;-67
2023/01/28 11:46:09;;;;;;;;;;;;;;;6.47;90.12;101063.88;5049066;28;20281;-66
2023/01/28 11:48:44;;;;;;;;;;;;;;;6.56;90.09;101058.56;5060911;28;19945;-66
2023/01/28 11:51:28;;;;;;;;;;;;;;;6.53;89.97;101053.28;5069655;28;19935;-67
2023/01/28 11:53:58;;;;;;;;;;;;;;;6.29;89.01;101058.56;5069357;28;19931;-66
2023/01/28 11:56:25;;;;;;;;;;;;;;;6.30;90.03;101057.69;5068056;28;19974;-67
2023/01/28 11:59:00;;;;;;;;;;;;;;;6.38;91.10;101054.16;5050973;28;20034;-66
2023/01/28 12:01:29;;;;;;;;;;;;;;;6.37;90.22;101056.81;5067797;28;20598;-66
2023/01/28 12:03:54;;;;;;;;;;;;;;;6.33;90.03;101055.91;5069801;28;20054;-66
2023/01/28 12:06:23;;;;;;;;;;;;;;;6.48;89.39;101050.66;5047079;28;20017;-66
2023/01/28 12:08:48;;;;;;;;;;;;;;;6.54;89.50;101055.03;5051405;28;20424;-66
2023/01/28 12:12:10;;;;;;;;;;;;;;;6.55;90.54;101047.13;5049857;28;19936;-66
2023/01/28 12:14:13;;;;;;;;;;;;;;;6.57;89.78;101052.41;5048915;28;20667;-66
2023/01/28 12:16:45;;;;;;;;;;;;;;;6.63;89.18;101049.75;5048939;28;19985;-67
2023/01/28 12:19:24;;;;;;;;;;;;;;;6.61;89.47;101051.53;5063253;28;19955;-66
2023/01/28 12:21:55;;;;;;;;;;;;;;;6.47;89.42;101056.78;5069132;28;19936;-67
2023/01/28 12:24:44;;;;;;;;;;;;;;;6.09;89.98;101071.75;5069238;28;19985;-66
2023/01/28 12:27:24;;;;;;;;;;;;;;;5.99;91.26;101064.69;5046094;28;20311;-66
2023/01/28 12:29:56;;;;;;;;;;;;;;;5.79;92.43;101061.06;5077836;28;19945;-66
2023/01/28 12:32:27;;;;;;;;;;;;;;;5.83;93.49;101057.56;5084549;28;20331;-66
2023/01/28 12:34:56;;;;;;;;;;;;;;;5.94;95.10;101049.69;5031779;28;20451;-66
2023/01/28 12:37:47;;;;;;;;;;;;;;;5.83;95.14;101051.44;5057702;28;20032;-66
2023/01/28 12:40:18;;;;;;;;;;;;;;;5.77;95.76;101051.34;5062908;28;19958;-66
2023/01/28 12:42:50;;;;;;;;;;;;;;;5.85;96.46;101049.69;5051168;28;19936;-66
2023/01/28 12:45:23;;;;;;;;;;;;;;;5.88;96.61;101045.25;5048892;28;20407;-66
2023/01/28 12:47:52;;;;;;;;;;;;;;;5.84;96.73;101051.44;5054229;28;19938;-66
2023/01/28 12:50:26;;;;;;;;;;;;;;;5.82;97.23;101045.25;5048841;28;19959;-66
2023/01/28 12:52:58;;;;;;;;;;;;;;;5.86;97.25;101046.16;5049895;28;19979;-66
2023/01/28 12:55:42;;;;;;;;;;;;;;;5.76;96.39;101049.59;5051008;28;19937;-66
2023/01/28 12:58:31;;;;;;;;;;;;;;;5.80;96.27;101040.81;5065743;28;19945;-66
2023/01/28 13:01:01;;;;;;;;;;;;;;;5.69;96.09;101040.78;5072576;28;19936;-66
2023/01/28 13:03:32;;;;;;;;;;;;;;;5.66;97.07;101045.16;5042314;28;19942;-66
2023/01/28 13:05:59;;;;;;;;;;;;;;;5.72;96.64;101045.19;5053833;28;19984;-66
2023/01/28 13:08:27;;;;;;;;;;;;;;;5.76;97.42;101049.59;5063021;28;20096;-66
2023/01/28 13:10:55;;;;;;;;;;;;;;;5.80;96.96;101046.09;5052087;28;19942;-66
2023/01/28 13:13:41;;;;;;;;;;;;;;;5.70;95.63;101050.44;5035021;28;19958;-66
2023/01/28 13:16:07;;;;;;;;;;;;;;;5.81;95.87;101047.84;5054034;28;20051;-66